createdAt,value
2019-01-15T00:00:39.617Z,1.40
2019-01-15T00:03:08.943Z,1.40
2019-01-15T00:05:38.297Z,1.40
2019-01-15T00:08:14.442Z,1.40
2019-01-15T00:10:43.950Z,1.40
2019-01-15T00:13:13.342Z,1.30
2019-01-15T00:15:42.607Z,1.30
2019-01-15T00:18:11.959Z,1.30
2019-01-15T00:20:41.313Z,1.30
2019-01-15T00:23:10.597Z,1.30
2019-01-15T00:25:40.018Z,1.30
2019-01-15T00:29:07.080Z,1.30
2019-01-15T00:31:36.465Z,1.30
2019-01-15T00:34:06.063Z,1.30
2019-01-15T00:36:35.756Z,1.30
2019-01-15T00:39:08.149Z,1.30
2019-01-15T00:41:37.716Z,1.40
2019-01-15T00:44:07.086Z,1.40
2019-01-15T00:46:36.837Z,1.40
2019-01-15T00:49:06.158Z,1.40
2019-01-15T00:51:35.539Z,1.40
2019-01-15T00:54:05.273Z,1.40
2019-01-15T00:56:34.966Z,1.50
2019-01-15T00:59:04.370Z,1.50
2019-01-15T01:01:34.072Z,1.50
2019-01-15T01:04:03.550Z,1.50
2019-01-15T01:06:33.198Z,1.50
2019-01-15T01:09:04.505Z,1.50
2019-01-15T01:11:34.782Z,1.50
2019-01-15T01:14:04.644Z,1.40
2019-01-15T01:16:34.142Z,1.40
2019-01-15T01:19:03.511Z,1.50
2019-01-15T01:21:32.923Z,1.40
2019-01-15T01:24:02.405Z,1.40
2019-01-15T01:26:32.141Z,1.40
2019-01-15T01:29:01.777Z,1.40
2019-01-15T01:31:31.419Z,1.40
2019-01-15T01:34:00.753Z,1.40
2019-01-15T01:36:30.598Z,1.30
2019-01-15T01:38:59.934Z,1.30
2019-01-15T01:41:29.371Z,1.30
2019-01-15T01:43:58.757Z,1.30
2019-01-15T01:46:52.283Z,1.30
2019-01-15T01:49:21.615Z,1.40
2019-01-15T01:51:52.145Z,1.40
2019-01-15T01:54:21.896Z,1.40
2019-01-15T01:56:51.323Z,1.40
2019-01-15T01:59:24.530Z,1.50
2019-01-15T02:05:35.154Z,1.50
2019-01-15T02:08:04.884Z,1.50
2019-01-15T02:10:34.170Z,1.50
2019-01-15T02:13:03.752Z,1.50
2019-01-15T02:15:47.426Z,1.60
2019-01-15T02:18:16.956Z,1.60
2019-01-15T02:20:46.556Z,1.60
2019-01-15T02:23:15.861Z,1.60
2019-01-15T02:29:26.609Z,1.60
2019-01-15T02:31:56.072Z,1.60
2019-01-15T02:34:27.149Z,1.60
2019-01-15T02:36:56.494Z,1.60
2019-01-15T02:39:25.952Z,1.60
2019-01-15T02:41:55.273Z,1.60
2019-01-15T02:44:24.704Z,1.60
2019-01-15T02:46:54.002Z,1.60
2019-01-15T02:49:23.462Z,1.60
2019-01-15T02:51:53.529Z,1.60
2019-01-15T02:54:22.876Z,1.60
2019-01-15T02:56:52.172Z,1.60
2019-01-15T02:59:21.482Z,1.60
2019-01-15T03:01:50.971Z,1.60
2019-01-15T03:04:21.341Z,1.70
2019-01-15T03:06:50.692Z,1.70
2019-01-15T03:09:20.055Z,1.70
2019-01-15T03:11:49.443Z,1.70
2019-01-15T03:14:19.297Z,1.70
2019-01-15T03:16:48.928Z,1.70
2019-01-15T03:19:18.157Z,1.70
2019-01-15T03:26:41.332Z,1.70
2019-01-15T03:29:10.575Z,1.70
2019-01-15T03:31:40.232Z,1.80
2019-01-15T03:34:09.895Z,1.70
2019-01-15T03:36:40.597Z,1.80
2019-01-15T03:39:10.841Z,1.80
2019-01-15T03:41:40.644Z,1.80
2019-01-15T03:44:10.135Z,1.80
2019-01-15T03:46:39.704Z,1.80
2019-01-15T03:49:54.920Z,1.80
2019-01-15T03:52:24.217Z,1.90
2019-01-15T03:54:53.856Z,1.90
2019-01-15T03:57:23.231Z,1.90
2019-01-15T03:59:52.590Z,2.00
2019-01-15T04:02:22.258Z,2.00
2019-01-15T04:04:53.723Z,2.00
2019-01-15T04:07:23.105Z,2.00
2019-01-15T04:09:52.682Z,2.00
2019-01-15T04:12:22.018Z,2.10
2019-01-15T04:14:53.930Z,2.10
2019-01-15T04:17:23.214Z,2.10
2019-01-15T04:19:52.493Z,2.10
2019-01-15T04:22:21.838Z,2.10
2019-01-15T04:24:51.165Z,2.10
2019-01-15T04:27:23.138Z,2.20
2019-01-15T04:29:52.724Z,2.20
2019-01-15T04:32:22.167Z,2.20
2019-01-15T04:34:51.395Z,2.20
2019-01-15T04:37:21.102Z,2.20
2019-01-15T04:39:53.819Z,2.20
2019-01-15T04:42:23.360Z,2.20
2019-01-15T04:44:52.749Z,2.30
2019-01-15T04:47:22.043Z,2.30
2019-01-15T04:49:51.447Z,2.30
2019-01-15T04:52:21.165Z,2.30
2019-01-15T04:54:51.333Z,2.30
2019-01-15T04:57:21.137Z,2.30
2019-01-15T04:59:50.540Z,2.30
2019-01-15T05:02:19.834Z,2.30
2019-01-15T05:04:49.735Z,2.30
2019-01-15T05:07:19.341Z,2.40
2019-01-15T05:09:54.722Z,2.40
2019-01-15T05:12:24.063Z,2.40
2019-01-15T05:14:53.522Z,2.40
2019-01-15T05:17:22.835Z,2.40
2019-01-15T05:19:52.534Z,2.40
2019-01-15T05:22:22.682Z,2.40
2019-01-15T05:24:56.992Z,2.40
2019-01-15T05:27:26.713Z,2.50
2019-01-15T05:33:39.706Z,2.50
2019-01-15T05:39:56.300Z,2.50
2019-01-15T05:46:02.440Z,2.60
2019-01-15T05:48:38.245Z,2.60
2019-01-15T05:51:35.720Z,2.60
2019-01-15T05:54:33.283Z,2.60
2019-01-15T05:57:05.786Z,2.60
2019-01-15T05:59:35.245Z,2.70
2019-01-15T06:02:04.642Z,2.70
2019-01-15T06:04:36.342Z,2.70
2019-01-15T06:07:05.860Z,2.70
2019-01-15T06:09:35.235Z,2.70
2019-01-15T06:12:10.003Z,2.70
2019-01-15T06:14:41.389Z,2.70
2019-01-15T06:17:39.505Z,2.70
2019-01-15T06:20:23.753Z,2.80
2019-01-15T06:22:52.909Z,2.80
2019-01-15T06:25:22.491Z,2.80
2019-01-15T06:27:54.315Z,2.80
2019-01-15T06:30:23.508Z,2.80
2019-01-15T06:32:53.025Z,2.80
2019-01-15T06:35:22.318Z,2.80
2019-01-15T06:38:09.022Z,2.80
2019-01-15T06:40:38.462Z,2.90
2019-01-15T06:43:07.705Z,2.90
2019-01-15T06:45:36.836Z,2.90
2019-01-15T06:48:07.452Z,2.90
2019-01-15T06:50:36.629Z,2.90
2019-01-15T06:53:06.406Z,2.90
2019-01-15T06:55:35.667Z,2.90
2019-01-15T06:58:05.165Z,2.90
2019-01-15T07:00:34.481Z,2.90
2019-01-15T07:03:03.622Z,2.90
2019-01-15T07:05:32.683Z,2.90
2019-01-15T07:08:02.033Z,2.90
2019-01-15T07:10:33.554Z,2.90
2019-01-15T07:13:02.768Z,2.90
2019-01-15T07:15:42.925Z,3.00
2019-01-15T07:18:12.083Z,3.00
2019-01-15T07:20:41.529Z,3.00
2019-01-15T07:23:11.040Z,3.00
2019-01-15T07:25:40.449Z,3.00
2019-01-15T07:28:10.565Z,3.10
2019-01-15T07:30:43.569Z,3.10
2019-01-15T07:33:13.503Z,3.10
2019-01-15T07:35:42.746Z,3.10
2019-01-15T07:38:12.472Z,3.10
2019-01-15T07:40:41.970Z,3.10
2019-01-15T07:43:13.518Z,3.10
2019-01-15T07:45:43.210Z,3.10
2019-01-15T07:48:12.298Z,3.10
2019-01-15T07:50:41.408Z,3.10
2019-01-15T07:53:10.634Z,3.10
2019-01-15T07:55:39.722Z,3.10
2019-01-15T07:58:09.255Z,3.10
2019-01-15T08:00:38.723Z,3.10
2019-01-15T08:03:08.182Z,3.10
2019-01-15T08:05:37.734Z,3.10
2019-01-15T08:08:07.475Z,3.20
2019-01-15T08:10:59.485Z,3.20
2019-01-15T08:13:29.177Z,3.20
2019-01-15T08:15:58.621Z,3.20
2019-01-15T08:18:28.530Z,3.20
2019-01-15T08:20:57.847Z,3.20
2019-01-15T08:23:27.210Z,3.20
2019-01-15T08:25:56.738Z,3.30
2019-01-15T08:28:26.029Z,3.30
2019-01-15T08:30:55.535Z,3.30
2019-01-15T08:33:29.582Z,3.30
2019-01-15T08:36:08.013Z,3.40
2019-01-15T08:38:44.526Z,3.40
2019-01-15T08:41:17.290Z,3.40
2019-01-15T08:43:46.970Z,3.40
2019-01-15T08:46:16.768Z,3.40
2019-01-15T08:48:46.271Z,3.40
2019-01-15T08:51:16.124Z,3.40
2019-01-15T08:53:46.213Z,3.50
2019-01-15T08:56:15.898Z,3.50
2019-01-15T08:58:45.656Z,3.50
2019-01-15T09:01:15.846Z,3.50
2019-01-15T09:03:45.251Z,3.60
2019-01-15T09:06:18.011Z,3.60
2019-01-15T09:08:47.270Z,3.60
2019-01-15T09:11:37.077Z,3.70
2019-01-15T09:14:06.740Z,3.70
2019-01-15T09:16:37.087Z,3.70
2019-01-15T09:19:06.640Z,3.70
2019-01-15T09:21:36.072Z,3.70
2019-01-15T09:24:05.350Z,3.80
2019-01-15T09:26:38.531Z,3.80
2019-01-15T09:29:07.862Z,3.80
2019-01-15T09:31:37.507Z,3.90
2019-01-15T09:34:07.124Z,3.90
2019-01-15T09:36:36.806Z,3.90
2019-01-15T09:39:09.184Z,3.90
2019-01-15T09:41:39.164Z,4.00
2019-01-15T09:44:08.737Z,4.00
2019-01-15T09:46:40.449Z,4.00
2019-01-15T09:49:10.022Z,4.00
2019-01-15T09:51:44.153Z,4.10
2019-01-15T09:54:14.116Z,4.10
2019-01-15T09:56:46.735Z,4.10
2019-01-15T09:59:28.694Z,4.10
2019-01-15T10:08:01.075Z,4.20
2019-01-15T10:10:32.829Z,4.20
2019-01-15T10:13:12.995Z,4.30
2019-01-15T10:15:43.350Z,4.30
2019-01-15T10:18:22.760Z,4.30
2019-01-15T10:21:16.804Z,4.40
2019-01-15T10:24:26.142Z,4.40
2019-01-15T11:26:54.672Z,5.00
2019-01-15T11:49:22.186Z,5.30
2019-01-15T11:51:51.912Z,5.40
2019-01-15T11:54:21.345Z,5.40
2019-01-15T11:56:50.980Z,5.40
2019-01-15T11:59:20.915Z,5.50
2019-01-15T12:02:03.162Z,5.50
2019-01-15T12:05:13.178Z,5.50
2019-01-15T12:08:19.991Z,5.60
2019-01-15T12:15:01.039Z,5.60
2019-01-15T12:17:59.672Z,5.60
2019-01-15T12:20:48.229Z,5.60
2019-01-15T12:23:35.354Z,5.70
2019-01-15T12:26:20.035Z,5.70
2019-01-15T12:29:01.008Z,5.70
2019-01-15T12:32:02.224Z,5.70
2019-01-15T12:34:52.100Z,5.70
2019-01-15T12:41:25.693Z,5.70
2019-01-15T12:44:23.129Z,5.70
2019-01-15T12:47:27.700Z,5.80
2019-01-15T12:50:06.546Z,5.80
2019-01-15T12:53:05.435Z,5.80
2019-01-15T12:55:53.294Z,5.80
2019-01-15T12:59:10.733Z,5.80
2019-01-15T13:02:03.802Z,5.80
2019-01-15T13:04:52.232Z,5.80
2019-01-15T13:07:35.644Z,5.80
2019-01-15T13:10:31.062Z,5.80
2019-01-15T13:13:22.418Z,5.90
2019-01-15T13:16:27.954Z,5.80
2019-01-15T13:19:40.566Z,5.90
2019-01-15T13:22:54.155Z,5.80
2019-01-15T13:25:51.019Z,5.80
2019-01-15T13:28:39.928Z,5.80
2019-01-15T13:31:27.126Z,5.80
2019-01-15T13:34:20.406Z,5.80
2019-01-15T13:37:19.609Z,5.80
2019-01-15T13:40:04.752Z,5.70
2019-01-15T13:43:12.294Z,5.70
2019-01-15T13:46:12.837Z,5.70
2019-01-15T13:49:12.836Z,5.70
2019-01-15T13:52:34.591Z,5.60
2019-01-15T13:55:28.069Z,5.60
2019-01-15T13:58:39.728Z,5.60
2019-01-15T14:01:12.183Z,5.60
2019-01-15T14:07:44.517Z,5.60
2019-01-15T14:14:09.189Z,5.60
2019-01-15T14:17:06.835Z,5.70
2019-01-15T14:20:03.817Z,5.70
2019-01-15T14:22:51.416Z,5.70
2019-01-15T14:25:46.217Z,5.60
2019-01-15T14:28:33.841Z,5.60
2019-01-15T14:38:28.433Z,5.60
2019-01-15T14:41:48.203Z,5.60
2019-01-15T14:44:41.876Z,5.50
2019-01-15T14:55:05.193Z,5.50
2019-01-15T14:57:53.069Z,5.50
2019-01-15T15:00:53.895Z,5.50
2019-01-15T15:03:35.335Z,5.50
2019-01-15T15:06:25.122Z,5.40
2019-01-15T15:09:15.618Z,5.40
2019-01-15T15:12:06.987Z,5.40
2019-01-15T15:14:57.714Z,5.40
2019-01-15T15:17:50.352Z,5.30
2019-01-15T15:21:10.114Z,5.40
2019-01-15T15:23:56.321Z,5.50
2019-01-15T15:26:44.989Z,5.60
2019-01-15T15:29:32.019Z,5.60
2019-01-15T15:32:19.635Z,5.50
2019-01-15T15:35:08.598Z,5.50
2019-01-15T15:37:53.190Z,5.50
2019-01-15T15:40:40.093Z,5.40
2019-01-15T15:43:27.097Z,5.40
2019-01-15T15:46:11.292Z,5.40
2019-01-15T15:52:39.794Z,5.30
2019-01-15T15:55:22.917Z,5.30
2019-01-15T15:58:18.959Z,5.30
2019-01-15T16:01:07.290Z,5.30
2019-01-15T16:03:47.375Z,5.30
2019-01-15T16:06:51.193Z,5.30
2019-01-15T16:09:39.734Z,5.30
2019-01-15T16:12:31.073Z,5.30
2019-01-15T16:15:23.064Z,5.30
2019-01-15T16:18:23.627Z,5.30
2019-01-15T16:21:26.941Z,5.30
2019-01-15T16:24:16.560Z,5.30
2019-01-15T16:27:01.102Z,5.20
2019-01-15T16:29:48.671Z,5.20
2019-01-15T16:32:31.681Z,5.20
2019-01-15T16:35:12.313Z,5.20
2019-01-15T16:38:35.663Z,5.20
2019-01-15T16:41:24.133Z,5.20
2019-01-15T16:44:11.336Z,5.20
2019-01-15T16:46:58.106Z,5.20
2019-01-15T16:49:36.011Z,5.20
2019-01-15T16:52:21.190Z,5.20
2019-01-15T16:55:08.345Z,5.20
2019-01-15T16:58:31.220Z,5.20
2019-01-15T17:01:21.443Z,5.20
2019-01-15T17:04:09.871Z,5.20
2019-01-15T17:06:58.094Z,5.20
2019-01-15T17:09:46.379Z,5.20
2019-01-15T17:12:53.254Z,5.20
2019-01-15T17:15:40.328Z,5.20
2019-01-15T17:22:12.556Z,5.20
2019-01-15T17:24:51.912Z,5.20
2019-01-15T17:27:39.008Z,5.20
2019-01-15T17:30:29.242Z,5.20
2019-01-15T17:33:26.556Z,5.20
2019-01-15T17:36:14.409Z,5.20
2019-01-15T17:39:04.234Z,5.20
2019-01-15T17:41:51.414Z,5.20
2019-01-15T17:44:33.987Z,5.20
2019-01-15T17:51:12.260Z,5.20
2019-01-15T17:54:12.592Z,5.20
2019-01-15T17:57:03.810Z,5.20
2019-01-15T17:59:50.896Z,5.20
2019-01-15T18:02:44.712Z,5.20
2019-01-15T18:05:42.339Z,5.20
2019-01-15T18:08:29.430Z,5.20
2019-01-15T18:11:17.766Z,5.20
2019-01-15T18:14:04.995Z,5.20
2019-01-15T18:16:53.371Z,5.20
2019-01-15T18:22:37.523Z,5.20
2019-01-15T18:25:29.725Z,5.20
2019-01-15T18:28:16.177Z,5.20
2019-01-15T18:31:10.734Z,5.30
2019-01-15T18:34:14.711Z,5.30
2019-01-15T18:37:02.975Z,5.30
2019-01-15T18:39:49.823Z,5.30
2019-01-15T18:42:30.475Z,5.30
2019-01-15T18:45:18.782Z,5.30
2019-01-15T18:48:13.352Z,5.30
2019-01-15T18:51:00.198Z,5.30
2019-01-15T18:53:51.240Z,5.30
2019-01-15T18:56:28.699Z,5.30
2019-01-15T18:59:16.342Z,5.30
2019-01-15T19:02:03.655Z,5.30
2019-01-15T19:04:54.997Z,5.30
2019-01-15T19:07:58.552Z,5.30
2019-01-15T19:10:39.622Z,5.30
2019-01-15T19:13:43.334Z,5.30
2019-01-15T19:16:25.742Z,5.30
2019-01-15T19:19:09.411Z,5.30
2019-01-15T19:21:55.753Z,5.30
2019-01-15T19:24:54.008Z,5.30
2019-01-15T19:27:52.240Z,5.30
2019-01-15T19:30:35.218Z,5.30
2019-01-15T19:33:22.200Z,5.30
2019-01-15T19:40:00.927Z,5.30
2019-01-15T19:42:43.654Z,5.30
2019-01-15T19:45:38.447Z,5.30
2019-01-15T19:52:20.731Z,5.40
2019-01-15T19:58:13.581Z,5.40
2019-01-15T20:04:45.644Z,5.30
2019-01-15T20:23:21.634Z,5.30
2019-01-15T20:26:08.595Z,5.40
2019-01-15T20:29:02.829Z,5.40
2019-01-15T20:31:55.065Z,5.40
2019-01-15T20:34:44.250Z,5.30
2019-01-15T20:37:31.268Z,5.30
2019-01-15T20:40:19.479Z,5.30
2019-01-15T20:43:11.002Z,5.30
2019-01-15T20:46:03.550Z,5.30
2019-01-15T20:48:53.761Z,5.30
2019-01-15T20:52:20.812Z,5.30
2019-01-15T20:59:28.913Z,5.30
2019-01-15T21:02:39.186Z,5.30
2019-01-15T21:09:48.037Z,5.30
2019-01-15T21:16:19.811Z,5.30
2019-01-15T21:19:47.014Z,5.30
2019-01-15T21:23:20.265Z,5.30
2019-01-15T21:26:48.138Z,5.30
2019-01-15T21:33:29.330Z,5.30
2019-01-15T21:36:16.498Z,5.30
2019-01-15T21:39:17.663Z,5.30
2019-01-15T21:42:06.016Z,5.30
2019-01-15T21:45:20.279Z,5.30
2019-01-15T21:48:13.634Z,5.30
2019-01-15T21:51:00.816Z,5.30
2019-01-15T21:53:51.392Z,5.30
2019-01-15T21:57:32.735Z,5.30
2019-01-15T22:00:19.646Z,5.30
2019-01-15T22:03:08.375Z,5.20
2019-01-15T22:05:55.684Z,5.20
2019-01-15T22:08:42.569Z,5.20
2019-01-15T22:11:32.225Z,5.20
2019-01-15T22:14:18.254Z,5.20
2019-01-15T22:17:00.601Z,5.20
2019-01-15T22:19:57.993Z,5.20
2019-01-15T22:22:39.325Z,5.30
2019-01-15T22:25:26.923Z,5.20
2019-01-15T22:28:07.545Z,5.20
2019-01-15T22:30:54.552Z,5.20
2019-01-15T22:33:41.791Z,5.30
2019-01-15T22:36:25.653Z,5.30
2019-01-15T22:39:13.051Z,5.20
2019-01-15T22:45:40.785Z,5.20
2019-01-15T22:48:32.724Z,5.20
2019-01-15T22:51:27.116Z,5.20
2019-01-15T22:54:22.751Z,5.20
2019-01-15T22:57:09.767Z,5.20
2019-01-15T23:00:12.200Z,5.20
2019-01-15T23:03:09.881Z,5.20
2019-01-15T23:05:52.870Z,5.20
2019-01-15T23:08:41.439Z,5.30
2019-01-15T23:11:42.719Z,5.30
2019-01-15T23:14:37.308Z,5.20
2019-01-15T23:17:28.635Z,5.30
2019-01-15T23:20:15.881Z,5.30
2019-01-15T23:23:28.115Z,5.30
2019-01-15T23:26:22.738Z,5.30
2019-01-15T23:29:11.067Z,5.30
2019-01-15T23:31:58.736Z,5.30
2019-01-15T23:34:43.802Z,5.30
2019-01-15T23:37:35.354Z,5.30
2019-01-15T23:40:34.425Z,5.30
2019-01-15T23:43:18.685Z,5.30
2019-01-15T23:46:13.655Z,5.30
2019-01-15T23:48:51.378Z,5.30
2019-01-15T23:51:28.015Z,5.30
2019-01-15T23:54:28.355Z,5.30
2019-01-15T23:57:16.641Z,5.30
